Time,TemperatureF,DewpointF,PressureIn,WindDirection,WindDirectionDegrees,WindSpeedMPH,WindSpeedGustMPH,Humidity,HourlyPrecipIn,Conditions,Clouds,dailyrainin,SolarRadiationWatts/m^2,SoftwareType,DateUTC
2013-03-30 00:02:00,51.0,34.0,-100.00,SSE,147,2.0,3.0,52,0.00,,,0.00,0.000000,,2013-03-30 04:02:00,
2013-03-30 00:23:00,51.0,34.0,-100.00,SSE,147,2.0,3.0,52,0.00,,,0.00,0.000000,,2013-03-30 04:23:00,
2013-03-30 00:33:00,51.0,34.0,-100.00,SSE,147,2.0,3.0,52,0.00,,,0.00,0.000000,,2013-03-30 04:33:00,
2013-03-30 00:43:00,51.0,34.0,-100.00,SSE,147,2.0,3.0,52,0.00,,,0.00,0.000000,,2013-03-30 04:43:00,
2013-03-30 00:53:00,51.0,34.0,-100.00,SSE,147,2.0,3.0,52,0.00,,,0.00,0.000000,,2013-03-30 04:53:00,
2013-03-30 01:02:00,50.0,34.0,-100.00,North,351,2.0,3.0,55,0.00,,,0.00,0.000000,,2013-03-30 05:02:00,
2013-03-30 01:32:00,50.0,34.0,-100.00,North,351,2.0,3.0,55,0.00,,,0.00,0.000000,,2013-03-30 05:32:00,
2013-03-30 01:42:00,50.0,34.0,-100.00,North,351,2.0,3.0,55,0.00,,,0.00,0.000000,,2013-03-30 05:42:00,
2013-03-30 01:52:00,50.0,34.0,-100.00,North,351,2.0,3.0,55,0.00,,,0.00,0.000000,,2013-03-30 05:52:00,
2013-03-30 02:02:00,51.0,34.0,-100.00,North,10,3.0,5.0,52,0.00,,,0.00,0.000000,,2013-03-30 06:02:00,
2013-03-30 02:32:00,51.0,34.0,-100.00,North,10,3.0,5.0,52,0.00,,,0.00,0.000000,,2013-03-30 06:32:00,
2013-03-30 02:42:00,51.0,34.0,-100.00,North,10,3.0,5.0,52,0.00,,,0.00,0.000000,,2013-03-30 06:42:00,
2013-03-30 02:52:00,51.0,34.0,-100.00,North,10,3.0,5.0,52,0.00,,,0.00,0.000000,,2013-03-30 06:52:00,
2013-03-30 03:02:00,50.0,34.0,-100.00,North,5,3.0,4.0,53,0.00,,,0.00,0.000000,,2013-03-30 07:02:00,
2013-03-30 03:32:00,50.0,34.0,-100.00,North,5,3.0,4.0,53,0.00,,,0.00,0.000000,,2013-03-30 07:32:00,
2013-03-30 03:42:00,50.0,34.0,-100.00,North,5,3.0,4.0,53,0.00,,,0.00,0.000000,,2013-03-30 07:42:00,
2013-03-30 03:52:00,50.0,34.0,-100.00,North,5,3.0,4.0,53,0.00,,,0.00,0.000000,,2013-03-30 07:52:00,
2013-03-30 04:02:00,50.0,34.0,-100.00,NNE,18,2.0,5.0,55,0.00,,,0.00,0.000000,,2013-03-30 08:02:00,
2013-03-30 04:22:00,50.0,34.0,-100.00,NNE,18,2.0,5.0,55,0.00,,,0.00,0.000000,,2013-03-30 08:22:00,
2013-03-30 04:32:00,50.0,34.0,-100.00,NNE,18,2.0,5.0,55,0.00,,,0.00,0.000000,,2013-03-30 08:32:00,
2013-03-30 04:42:00,50.0,34.0,-100.00,NNE,18,2.0,5.0,55,0.00,,,0.00,0.000000,,2013-03-30 08:42:00,
2013-03-30 04:53:00,50.0,34.0,-100.00,NNE,18,2.0,5.0,55,0.00,,,0.00,0.000000,,2013-03-30 08:53:00,
2013-03-30 05:02:00,48.0,36.0,-100.00,ESE,115,2.0,4.0,63,0.00,,,0.00,0.000000,,2013-03-30 09:02:00,
2013-03-30 05:33:00,48.0,36.0,-100.00,ESE,115,2.0,4.0,63,0.00,,,0.00,0.000000,,2013-03-30 09:33:00,
2013-03-30 05:43:00,48.0,36.0,-100.00,ESE,115,2.0,4.0,63,0.00,,,0.00,0.000000,,2013-03-30 09:43:00,
2013-03-30 05:54:00,48.0,36.0,-100.00,ESE,115,2.0,4.0,63,0.00,,,0.00,0.000000,,2013-03-30 09:54:00,
2013-03-30 06:02:00,47.0,35.0,-100.00,North,9,2.0,4.0,64,0.00,,,0.00,0.000000,,2013-03-30 10:02:00,
2013-03-30 06:23:00,47.0,35.0,-100.00,North,9,2.0,4.0,64,0.00,,,0.00,0.000000,,2013-03-30 10:23:00,
2013-03-30 06:33:00,47.0,35.0,-100.00,North,9,2.0,4.0,64,0.00,,,0.00,0.000000,,2013-03-30 10:33:00,
2013-03-30 06:42:00,47.0,35.0,-100.00,North,9,2.0,4.0,64,0.00,,,0.00,0.000000,,2013-03-30 10:42:00,
2013-03-30 06:53:00,47.0,35.0,-100.00,North,9,2.0,4.0,64,0.00,,,0.00,0.000000,,2013-03-30 10:53:00,
2013-03-30 07:02:00,46.0,35.0,-100.00,NE,49,2.0,3.0,65,0.00,,,0.00,0.000000,,2013-03-30 11:02:00,
2013-03-30 07:33:00,46.0,35.0,-100.00,NE,49,2.0,3.0,65,0.00,,,0.00,0.000000,,2013-03-30 11:33:00,
2013-03-30 07:43:00,46.0,35.0,-100.00,NE,49,2.0,3.0,65,0.00,,,0.00,0.000000,,2013-03-30 11:43:00,
2013-03-30 07:53:00,46.0,35.0,-100.00,NE,49,2.0,3.0,65,0.00,,,0.00,0.000000,,2013-03-30 11:53:00,
2013-03-30 08:02:00,45.0,36.0,-100.00,NE,42,1.0,2.0,71,0.00,,,0.00,7.000000,,2013-03-30 12:02:00,
2013-03-30 08:33:00,45.0,36.0,-100.00,NE,42,1.0,2.0,71,0.00,,,0.00,7.000000,,2013-03-30 12:33:00,
2013-03-30 08:43:00,45.0,36.0,-100.00,NE,42,1.0,2.0,71,0.00,,,0.00,7.000000,,2013-03-30 12:43:00,
2013-03-30 08:53:00,45.0,36.0,-100.00,NE,42,1.0,2.0,71,0.00,,,0.00,7.000000,,2013-03-30 12:53:00,
2013-03-30 09:02:00,47.0,40.0,-100.00,NNE,18,2.0,4.0,76,0.00,,,0.00,54.000000,,2013-03-30 13:02:00,
2013-03-30 09:32:00,47.0,40.0,-100.00,NNE,18,2.0,4.0,76,0.00,,,0.00,54.000000,,2013-03-30 13:32:00,
2013-03-30 09:43:00,47.0,40.0,-100.00,NNE,18,2.0,4.0,76,0.00,,,0.00,54.000000,,2013-03-30 13:43:00,
2013-03-30 09:53:00,47.0,40.0,-100.00,NNE,18,2.0,4.0,76,0.00,,,0.00,54.000000,,2013-03-30 13:53:00,
2013-03-30 10:02:00,54.0,40.0,-100.00,SE,134,3.0,7.0,58,0.00,,,0.00,220.000000,,2013-03-30 14:02:00,
2013-03-30 10:23:00,54.0,40.0,-100.00,SE,134,3.0,7.0,58,0.00,,,0.00,220.000000,,2013-03-30 14:23:00,
2013-03-30 10:33:00,54.0,40.0,-100.00,SE,134,3.0,7.0,58,0.00,,,0.00,220.000000,,2013-03-30 14:33:00,
2013-03-30 10:43:00,54.0,40.0,-100.00,SE,134,3.0,7.0,58,0.00,,,0.00,220.000000,,2013-03-30 14:43:00,
2013-03-30 10:53:00,54.0,40.0,-100.00,SE,134,3.0,7.0,58,0.00,,,0.00,220.000000,,2013-03-30 14:53:00,
2013-03-30 11:02:00,59.0,39.0,-100.00,South,169,2.0,5.0,47,0.00,,,0.00,456.000000,,2013-03-30 15:02:00,
2013-03-30 11:34:00,59.0,39.0,-100.00,South,169,2.0,5.0,47,0.00,,,0.00,456.000000,,2013-03-30 15:34:00,
2013-03-30 11:43:00,59.0,39.0,-100.00,South,169,2.0,5.0,47,0.00,,,0.00,456.000000,,2013-03-30 15:43:00,
2013-03-30 11:53:00,59.0,39.0,-100.00,South,169,2.0,5.0,47,0.00,,,0.00,456.000000,,2013-03-30 15:53:00,
2013-03-30 12:02:00,62.0,38.0,-100.00,East,98,4.0,7.0,41,0.00,,,0.00,637.000000,,2013-03-30 16:02:00,
2013-03-30 12:33:00,62.0,38.0,-100.00,East,98,4.0,7.0,41,0.00,,,0.00,637.000000,,2013-03-30 16:33:00,
2013-03-30 12:43:00,62.0,38.0,-100.00,East,98,4.0,7.0,41,0.00,,,0.00,637.000000,,2013-03-30 16:43:00,
2013-03-30 12:53:00,62.0,38.0,-100.00,East,98,4.0,7.0,41,0.00,,,0.00,637.000000,,2013-03-30 16:53:00,
2013-03-30 13:02:00,66.0,39.0,-100.00,ESE,103,3.0,7.0,37,0.00,,,0.00,836.000000,,2013-03-30 17:02:00,
2013-03-30 13:33:00,66.0,39.0,-100.00,ESE,103,3.0,7.0,37,0.00,,,0.00,836.000000,,2013-03-30 17:33:00,
2013-03-30 13:43:00,66.0,39.0,-100.00,ESE,103,3.0,7.0,37,0.00,,,0.00,836.000000,,2013-03-30 17:43:00,
2013-03-30 13:53:00,66.0,39.0,-100.00,ESE,103,3.0,7.0,37,0.00,,,0.00,836.000000,,2013-03-30 17:53:00,
2013-03-30 14:02:00,69.0,41.0,-100.00,SSW,196,3.0,7.0,36,0.00,,,0.00,829.000000,,2013-03-30 18:02:00,
2013-03-30 14:33:00,69.0,41.0,-100.00,SSW,196,3.0,7.0,36,0.00,,,0.00,829.000000,,2013-03-30 18:33:00,
2013-03-30 14:43:00,69.0,41.0,-100.00,SSW,196,3.0,7.0,36,0.00,,,0.00,829.000000,,2013-03-30 18:43:00,
2013-03-30 14:53:00,69.0,41.0,-100.00,SSW,196,3.0,7.0,36,0.00,,,0.00,829.000000,,2013-03-30 18:53:00,
2013-03-30 15:02:00,71.0,40.0,-100.00,SSE,162,3.0,9.0,32,0.00,,,0.00,798.000000,,2013-03-30 19:02:00,
2013-03-30 15:32:00,71.0,40.0,-100.00,SSE,162,3.0,9.0,32,0.00,,,0.00,798.000000,,2013-03-30 19:32:00,
2013-03-30 15:42:00,71.0,40.0,-100.00,SSE,162,3.0,9.0,32,0.00,,,0.00,798.000000,,2013-03-30 19:42:00,
2013-03-30 15:53:00,71.0,40.0,-100.00,SSE,162,3.0,9.0,32,0.00,,,0.00,798.000000,,2013-03-30 19:53:00,
2013-03-30 16:02:00,72.0,39.0,-100.00,South,190,2.0,10.0,30,0.00,,,0.00,742.000000,,2013-03-30 20:02:00,
2013-03-30 16:33:00,72.0,39.0,-100.00,South,190,2.0,10.0,30,0.00,,,0.00,742.000000,,2013-03-30 20:33:00,
2013-03-30 16:43:00,72.0,39.0,-100.00,South,190,2.0,10.0,30,0.00,,,0.00,742.000000,,2013-03-30 20:43:00,
2013-03-30 16:53:00,72.0,39.0,-100.00,South,190,2.0,10.0,30,0.00,,,0.00,742.000000,,2013-03-30 20:53:00,
2013-03-30 17:02:00,72.0,41.0,-100.00,WSW,246,3.0,8.0,32,0.00,,,0.00,427.000000,,2013-03-30 21:02:00,
2013-03-30 17:34:00,72.0,41.0,-100.00,WSW,246,3.0,8.0,32,0.00,,,0.00,427.000000,,2013-03-30 21:34:00,
2013-03-30 17:43:00,72.0,41.0,-100.00,WSW,246,3.0,8.0,32,0.00,,,0.00,427.000000,,2013-03-30 21:43:00,
2013-03-30 17:53:00,72.0,41.0,-100.00,WSW,246,3.0,8.0,32,0.00,,,0.00,427.000000,,2013-03-30 21:53:00,
2013-03-30 18:02:00,71.0,40.0,-100.00,WNW,284,3.0,7.0,33,0.00,,,0.00,267.000000,,2013-03-30 22:02:00,
2013-03-30 18:33:00,71.0,40.0,-100.00,WNW,284,3.0,7.0,33,0.00,,,0.00,267.000000,,2013-03-30 22:33:00,
2013-03-30 18:44:00,71.0,40.0,-100.00,WNW,284,3.0,7.0,33,0.00,,,0.00,267.000000,,2013-03-30 22:44:00,
2013-03-30 18:54:00,71.0,40.0,-100.00,WNW,284,3.0,7.0,33,0.00,,,0.00,267.000000,,2013-03-30 22:54:00,
2013-03-30 19:02:00,67.0,41.0,-100.00,SSW,207,2.0,5.0,38,0.00,,,0.00,59.000000,,2013-03-30 23:02:00,
2013-03-30 19:22:00,67.0,41.0,-100.00,SSW,207,2.0,5.0,38,0.00,,,0.00,59.000000,,2013-03-30 23:22:00,
2013-03-30 19:33:00,67.0,41.0,-100.00,SSW,207,2.0,5.0,38,0.00,,,0.00,59.000000,,2013-03-30 23:33:00,
2013-03-30 19:43:00,67.0,41.0,-100.00,SSW,207,2.0,5.0,38,0.00,,,0.00,59.000000,,2013-03-30 23:43:00,
2013-03-30 19:53:00,67.0,41.0,-100.00,SSW,207,2.0,5.0,38,0.00,,,0.00,59.000000,,2013-03-30 23:53:00,
2013-03-30 20:02:00,59.0,54.0,-100.00,West,271,3.0,17.0,82,0.00,,,0.00,8.000000,,2013-03-31 00:02:00,
2013-03-30 20:33:00,59.0,54.0,-100.00,West,271,3.0,17.0,82,0.00,,,0.00,8.000000,,2013-03-31 00:33:00,
2013-03-30 20:43:00,59.0,54.0,-100.00,West,271,3.0,17.0,82,0.00,,,0.00,8.000000,,2013-03-31 00:43:00,
2013-03-30 20:53:00,59.0,54.0,-100.00,West,271,3.0,17.0,82,0.00,,,0.00,8.000000,,2013-03-31 00:53:00,
2013-03-30 21:02:00,56.0,55.0,-100.00,NW,313,3.0,7.0,96,0.06,,,0.06,0.000000,,2013-03-31 01:02:00,
2013-03-30 21:22:00,56.0,55.0,-100.00,NW,313,3.0,7.0,96,0.06,,,0.06,0.000000,,2013-03-31 01:22:00,
2013-03-30 21:32:00,56.0,55.0,-100.00,NW,313,3.0,7.0,96,0.06,,,0.06,0.000000,,2013-03-31 01:32:00,
2013-03-30 21:43:00,56.0,55.0,-100.00,NW,313,3.0,7.0,96,0.06,,,0.06,0.000000,,2013-03-31 01:43:00,
2013-03-30 21:53:00,56.0,55.0,-100.00,NW,313,3.0,7.0,96,0.06,,,0.06,0.000000,,2013-03-31 01:53:00,
2013-03-30 22:02:00,55.0,54.0,-100.00,North,358,2.0,5.0,96,0.05,,,0.11,0.000000,,2013-03-31 02:02:00,
2013-03-30 22:22:00,55.0,54.0,-100.00,North,358,2.0,5.0,96,0.05,,,0.11,0.000000,,2013-03-31 02:22:00,
2013-03-30 22:33:00,55.0,54.0,-100.00,North,358,2.0,5.0,96,0.05,,,0.11,0.000000,,2013-03-31 02:33:00,
2013-03-30 22:43:00,55.0,54.0,-100.00,North,358,2.0,5.0,96,0.05,,,0.11,0.000000,,2013-03-31 02:43:00,
2013-03-30 22:53:00,55.0,54.0,-100.00,North,358,2.0,5.0,96,0.05,,,0.11,0.000000,,2013-03-31 02:53:00,
2013-03-30 23:02:00,55.0,-99.9,-100.00,WNW,291,1.0,3.0,99,0.14,,,-99.99,0.000000,,2013-03-31 03:02:00,
2013-03-30 23:33:00,55.0,55.0,-100.00,WNW,291,1.0,3.0,99,0.14,,,-99.99,0.000000,,2013-03-31 03:33:00,
2013-03-30 23:44:00,55.0,55.0,-100.00,WNW,291,1.0,3.0,99,0.14,,,-99.99,0.000000,,2013-03-31 03:44:00,
2013-03-30 23:54:00,55.0,55.0,-100.00,WNW,291,1.0,3.0,99,0.14,,,-99.99,0.000000,,2013-03-31 03:54:00,